sensor_id;sensor_type;location;lat;lon;timestamp;P1;durP1;ratioP1;P2;durP2;ratioP2
74369;SDS011;62805;44.644;10.942;2022-10-17T00:00:40;69.13;;;34.60;;
74369;SDS011;62805;44.644;10.942;2022-10-17T00:03:05;71.75;;;36.42;;
74369;SDS011;62805;44.644;10.942;2022-10-17T00:05:31;68.22;;;34.65;;
74369;SDS011;62805;44.644;10.942;2022-10-17T00:07:56;68.28;;;34.83;;
74369;SDS011;62805;44.644;10.942;2022-10-17T00:10:22;68.32;;;36.13;;
74369;SDS011;62805;44.644;10.942;2022-10-17T00:12:49;64.38;;;34.35;;
74369;SDS011;62805;44.644;10.942;2022-10-17T00:15:16;67.35;;;35.22;;
74369;SDS011;62805;44.644;10.942;2022-10-17T00:17:43;68.57;;;34.50;;
74369;SDS011;62805;44.644;10.942;2022-10-17T00:20:08;73.10;;;35.55;;
74369;SDS011;62805;44.644;10.942;2022-10-17T00:22:34;67.85;;;35.00;;
74369;SDS011;62805;44.644;10.942;2022-10-17T00:25:00;67.87;;;35.30;;
74369;SDS011;62805;44.644;10.942;2022-10-17T00:27:25;68.85;;;35.55;;
74369;SDS011;62805;44.644;10.942;2022-10-17T00:29:50;73.28;;;34.92;;
74369;SDS011;62805;44.644;10.942;2022-10-17T00:32:16;69.65;;;35.95;;
74369;SDS011;62805;44.644;10.942;2022-10-17T00:34:42;70.38;;;34.30;;
74369;SDS011;62805;44.644;10.942;2022-10-17T00:37:08;72.03;;;34.92;;
74369;SDS011;62805;44.644;10.942;2022-10-17T00:39:33;68.60;;;35.08;;
74369;SDS011;62805;44.644;10.942;2022-10-17T00:41:59;71.10;;;34.92;;
74369;SDS011;62805;44.644;10.942;2022-10-17T00:46:56;76.97;;;38.08;;
74369;SDS011;62805;44.644;10.942;2022-10-17T00:49:23;72.28;;;36.47;;
74369;SDS011;62805;44.644;10.942;2022-10-17T00:51:55;72.65;;;34.85;;
74369;SDS011;62805;44.644;10.942;2022-10-17T00:54:24;71.50;;;34.42;;
74369;SDS011;62805;44.644;10.942;2022-10-17T00:56:53;67.88;;;34.60;;
74369;SDS011;62805;44.644;10.942;2022-10-17T00:59:19;66.35;;;33.00;;
74369;SDS011;62805;44.644;10.942;2022-10-17T01:01:58;63.25;;;33.05;;
74369;SDS011;62805;44.644;10.942;2022-10-17T01:04:25;62.47;;;30.98;;
74369;SDS011;62805;44.644;10.942;2022-10-17T01:06:50;59.85;;;31.70;;
74369;SDS011;62805;44.644;10.942;2022-10-17T01:09:16;59.75;;;31.83;;
74369;SDS011;62805;44.644;10.942;2022-10-17T01:11:48;66.95;;;33.53;;
74369;SDS011;62805;44.644;10.942;2022-10-17T01:22:55;52.65;;;27.30;;
74369;SDS011;62805;44.644;10.942;2022-10-17T01:31:16;53.35;;;27.45;;
74369;SDS011;62805;44.644;10.942;2022-10-17T01:33:59;51.63;;;28.52;;
74369;SDS011;62805;44.644;10.942;2022-10-17T01:36:36;48.20;;;27.10;;
74369;SDS011;62805;44.644;10.942;2022-10-17T01:41:43;51.13;;;27.38;;
74369;SDS011;62805;44.644;10.942;2022-10-17T01:46:44;57.72;;;28.25;;
74369;SDS011;62805;44.644;10.942;2022-10-17T01:49:15;49.53;;;27.30;;
74369;SDS011;62805;44.644;10.942;2022-10-17T01:51:45;51.22;;;27.75;;
74369;SDS011;62805;44.644;10.942;2022-10-17T01:54:16;52.15;;;27.70;;
74369;SDS011;62805;44.644;10.942;2022-10-17T01:56:43;56.03;;;29.40;;
74369;SDS011;62805;44.644;10.942;2022-10-17T01:59:18;56.15;;;28.48;;
74369;SDS011;62805;44.644;10.942;2022-10-17T02:01:47;55.95;;;29.73;;
74369;SDS011;62805;44.644;10.942;2022-10-17T02:04:15;55.85;;;30.55;;
74369;SDS011;62805;44.644;10.942;2022-10-17T02:06:40;57.05;;;29.08;;
74369;SDS011;62805;44.644;10.942;2022-10-17T02:09:39;57.83;;;30.17;;
74369;SDS011;62805;44.644;10.942;2022-10-17T02:20:20;57.65;;;29.95;;
74369;SDS011;62805;44.644;10.942;2022-10-17T02:28:19;66.35;;;32.75;;
74369;SDS011;62805;44.644;10.942;2022-10-17T02:30:48;58.17;;;31.08;;
74369;SDS011;62805;44.644;10.942;2022-10-17T02:33:27;67.25;;;32.15;;
74369;SDS011;62805;44.644;10.942;2022-10-17T02:35:56;62.47;;;31.08;;
74369;SDS011;62805;44.644;10.942;2022-10-17T02:38:24;60.80;;;30.73;;
74369;SDS011;62805;44.644;10.942;2022-10-17T02:40:52;60.63;;;31.77;;
74369;SDS011;62805;44.644;10.942;2022-10-17T02:43:18;64.40;;;31.60;;
74369;SDS011;62805;44.644;10.942;2022-10-17T02:45:44;65.20;;;31.20;;
74369;SDS011;62805;44.644;10.942;2022-10-17T02:48:30;60.40;;;30.33;;
74369;SDS011;62805;44.644;10.942;2022-10-17T02:51:02;65.53;;;32.05;;
74369;SDS011;62805;44.644;10.942;2022-10-17T02:56:13;63.85;;;32.33;;
74369;SDS011;62805;44.644;10.942;2022-10-17T02:58:41;64.97;;;31.50;;
74369;SDS011;62805;44.644;10.942;2022-10-17T03:01:10;61.05;;;31.52;;
74369;SDS011;62805;44.644;10.942;2022-10-17T03:03:37;63.38;;;31.20;;
74369;SDS011;62805;44.644;10.942;2022-10-17T03:06:02;62.90;;;31.83;;
74369;SDS011;62805;44.644;10.942;2022-10-17T03:08:28;62.08;;;33.17;;
74369;SDS011;62805;44.644;10.942;2022-10-17T03:10:54;60.17;;;31.60;;
74369;SDS011;62805;44.644;10.942;2022-10-17T03:13:19;73.57;;;34.23;;
74369;SDS011;62805;44.644;10.942;2022-10-17T03:15:44;69.47;;;34.03;;
74369;SDS011;62805;44.644;10.942;2022-10-17T03:18:10;66.75;;;32.08;;
74369;SDS011;62805;44.644;10.942;2022-10-17T03:20:36;70.65;;;33.67;;
74369;SDS011;62805;44.644;10.942;2022-10-17T03:23:01;67.30;;;33.57;;
74369;SDS011;62805;44.644;10.942;2022-10-17T03:25:27;69.95;;;32.45;;
74369;SDS011;62805;44.644;10.942;2022-10-17T03:27:52;73.40;;;34.67;;
74369;SDS011;62805;44.644;10.942;2022-10-17T03:30:18;64.75;;;33.45;;
74369;SDS011;62805;44.644;10.942;2022-10-17T03:32:43;71.18;;;34.25;;
74369;SDS011;62805;44.644;10.942;2022-10-17T03:35:09;70.30;;;33.40;;
74369;SDS011;62805;44.644;10.942;2022-10-17T03:37:37;70.45;;;33.55;;
74369;SDS011;62805;44.644;10.942;2022-10-17T03:40:02;74.40;;;33.45;;
74369;SDS011;62805;44.644;10.942;2022-10-17T03:42:28;69.50;;;35.67;;
74369;SDS011;62805;44.644;10.942;2022-10-17T03:44:53;70.65;;;34.53;;
74369;SDS011;62805;44.644;10.942;2022-10-17T03:47:18;65.67;;;33.37;;
74369;SDS011;62805;44.644;10.942;2022-10-17T03:49:45;68.85;;;32.20;;
74369;SDS011;62805;44.644;10.942;2022-10-17T03:52:11;73.18;;;33.67;;
74369;SDS011;62805;44.644;10.942;2022-10-17T03:54:36;69.35;;;33.67;;
74369;SDS011;62805;44.644;10.942;2022-10-17T03:57:02;69.70;;;33.93;;
74369;SDS011;62805;44.644;10.942;2022-10-17T03:59:28;69.50;;;32.72;;
74369;SDS011;62805;44.644;10.942;2022-10-17T04:01:54;67.53;;;32.15;;
74369;SDS011;62805;44.644;10.942;2022-10-17T04:04:19;69.57;;;32.93;;
74369;SDS011;62805;44.644;10.942;2022-10-17T04:06:45;66.75;;;32.78;;
74369;SDS011;62805;44.644;10.942;2022-10-17T04:09:10;64.77;;;31.07;;
74369;SDS011;62805;44.644;10.942;2022-10-17T04:11:35;67.57;;;32.90;;
74369;SDS011;62805;44.644;10.942;2022-10-17T04:14:01;68.35;;;33.17;;
74369;SDS011;62805;44.644;10.942;2022-10-17T04:16:26;66.28;;;32.72;;
74369;SDS011;62805;44.644;10.942;2022-10-17T04:18:55;67.15;;;33.85;;
74369;SDS011;62805;44.644;10.942;2022-10-17T04:21:22;66.22;;;33.67;;
74369;SDS011;62805;44.644;10.942;2022-10-17T04:23:58;61.55;;;31.63;;
74369;SDS011;62805;44.644;10.942;2022-10-17T04:26:24;62.47;;;31.58;;
74369;SDS011;62805;44.644;10.942;2022-10-17T04:28:50;64.38;;;31.02;;
74369;SDS011;62805;44.644;10.942;2022-10-17T04:31:16;62.75;;;30.83;;
74369;SDS011;62805;44.644;10.942;2022-10-17T04:33:42;65.25;;;31.05;;
74369;SDS011;62805;44.644;10.942;2022-10-17T04:36:12;63.53;;;31.00;;
74369;SDS011;62805;44.644;10.942;2022-10-17T04:38:38;61.50;;;31.40;;
74369;SDS011;62805;44.644;10.942;2022-10-17T04:41:05;64.78;;;31.98;;
74369;SDS011;62805;44.644;10.942;2022-10-17T04:43:32;61.28;;;32.80;;
74369;SDS011;62805;44.644;10.942;2022-10-17T04:48:28;61.00;;;29.98;;
74369;SDS011;62805;44.644;10.942;2022-10-17T04:51:00;67.68;;;31.63;;
74369;SDS011;62805;44.644;10.942;2022-10-17T04:53:27;63.95;;;33.17;;
74369;SDS011;62805;44.644;10.942;2022-10-17T04:55:55;68.22;;;31.63;;
74369;SDS011;62805;44.644;10.942;2022-10-17T04:58:20;69.83;;;33.37;;
74369;SDS011;62805;44.644;10.942;2022-10-17T05:00:46;64.75;;;31.63;;
74369;SDS011;62805;44.644;10.942;2022-10-17T05:03:11;65.22;;;33.28;;
74369;SDS011;62805;44.644;10.942;2022-10-17T05:05:37;68.80;;;34.20;;
74369;SDS011;62805;44.644;10.942;2022-10-17T05:08:03;68.70;;;33.45;;
74369;SDS011;62805;44.644;10.942;2022-10-17T05:10:29;61.97;;;31.10;;
74369;SDS011;62805;44.644;10.942;2022-10-17T05:12:55;68.55;;;32.08;;
74369;SDS011;62805;44.644;10.942;2022-10-17T05:15:20;66.10;;;31.58;;
74369;SDS011;62805;44.644;10.942;2022-10-17T05:17:46;65.43;;;30.65;;
74369;SDS011;62805;44.644;10.942;2022-10-17T05:20:12;63.28;;;30.80;;
74369;SDS011;62805;44.644;10.942;2022-10-17T05:22:38;62.13;;;29.92;;
74369;SDS011;62805;44.644;10.942;2022-10-17T05:25:04;58.95;;;28.38;;
74369;SDS011;62805;44.644;10.942;2022-10-17T05:27:30;53.58;;;27.23;;
74369;SDS011;62805;44.644;10.942;2022-10-17T05:29:56;54.80;;;28.13;;
74369;SDS011;62805;44.644;10.942;2022-10-17T05:32:21;51.90;;;26.33;;
74369;SDS011;62805;44.644;10.942;2022-10-17T05:34:46;48.53;;;25.00;;
74369;SDS011;62805;44.644;10.942;2022-10-17T05:37:12;48.53;;;24.95;;
74369;SDS011;62805;44.644;10.942;2022-10-17T05:39:38;53.78;;;25.05;;
74369;SDS011;62805;44.644;10.942;2022-10-17T05:42:04;48.73;;;24.53;;
74369;SDS011;62805;44.644;10.942;2022-10-17T05:44:29;49.60;;;24.30;;
74369;SDS011;62805;44.644;10.942;2022-10-17T05:46:54;48.17;;;23.92;;
74369;SDS011;62805;44.644;10.942;2022-10-17T05:49:20;42.80;;;23.65;;
74369;SDS011;62805;44.644;10.942;2022-10-17T05:51:45;46.45;;;23.55;;
74369;SDS011;62805;44.644;10.942;2022-10-17T05:54:10;51.05;;;25.38;;
74369;SDS011;62805;44.644;10.942;2022-10-17T05:56:36;50.05;;;25.48;;
74369;SDS011;62805;44.644;10.942;2022-10-17T05:59:02;49.37;;;23.73;;
74369;SDS011;62805;44.644;10.942;2022-10-17T06:01:28;44.80;;;24.00;;
74369;SDS011;62805;44.644;10.942;2022-10-17T06:03:53;48.50;;;24.97;;
74369;SDS011;62805;44.644;10.942;2022-10-17T06:06:19;50.63;;;24.63;;
74369;SDS011;62805;44.644;10.942;2022-10-17T06:08:44;47.85;;;23.73;;
74369;SDS011;62805;44.644;10.942;2022-10-17T06:11:10;47.25;;;23.95;;
74369;SDS011;62805;44.644;10.942;2022-10-17T06:13:36;49.78;;;25.10;;
74369;SDS011;62805;44.644;10.942;2022-10-17T06:16:02;47.10;;;25.13;;
74369;SDS011;62805;44.644;10.942;2022-10-17T06:18:28;49.58;;;25.10;;
74369;SDS011;62805;44.644;10.942;2022-10-17T06:20:53;48.40;;;24.48;;
74369;SDS011;62805;44.644;10.942;2022-10-17T06:23:18;43.87;;;23.33;;
74369;SDS011;62805;44.644;10.942;2022-10-17T06:25:44;48.63;;;24.42;;
74369;SDS011;62805;44.644;10.942;2022-10-17T06:28:12;47.40;;;24.98;;
74369;SDS011;62805;44.644;10.942;2022-10-17T06:30:38;49.20;;;25.40;;
74369;SDS011;62805;44.644;10.942;2022-10-17T06:33:04;49.70;;;24.60;;
74369;SDS011;62805;44.644;10.942;2022-10-17T06:35:30;52.45;;;25.65;;
74369;SDS011;62805;44.644;10.942;2022-10-17T06:37:55;46.28;;;25.58;;
74369;SDS011;62805;44.644;10.942;2022-10-17T06:40:21;46.05;;;26.23;;
74369;SDS011;62805;44.644;10.942;2022-10-17T06:42:46;49.15;;;25.42;;
74369;SDS011;62805;44.644;10.942;2022-10-17T06:45:12;53.53;;;28.10;;
74369;SDS011;62805;44.644;10.942;2022-10-17T06:47:38;52.10;;;27.17;;
74369;SDS011;62805;44.644;10.942;2022-10-17T06:50:03;56.35;;;28.23;;
74369;SDS011;62805;44.644;10.942;2022-10-17T06:52:29;57.63;;;28.42;;
74369;SDS011;62805;44.644;10.942;2022-10-17T06:54:54;61.63;;;30.03;;
74369;SDS011;62805;44.644;10.942;2022-10-17T06:57:20;73.97;;;31.52;;
74369;SDS011;62805;44.644;10.942;2022-10-17T06:59:45;77.95;;;31.52;;
74369;SDS011;62805;44.644;10.942;2022-10-17T07:02:10;90.17;;;32.07;;
74369;SDS011;62805;44.644;10.942;2022-10-17T07:04:36;74.32;;;33.72;;
74369;SDS011;62805;44.644;10.942;2022-10-17T07:07:01;80.05;;;35.25;;
74369;SDS011;62805;44.644;10.942;2022-10-17T07:09:28;69.00;;;31.98;;
74369;SDS011;62805;44.644;10.942;2022-10-17T07:11:54;65.70;;;31.83;;
74369;SDS011;62805;44.644;10.942;2022-10-17T07:14:19;64.30;;;30.60;;
74369;SDS011;62805;44.644;10.942;2022-10-17T07:16:45;69.28;;;32.92;;
74369;SDS011;62805;44.644;10.942;2022-10-17T07:19:10;64.32;;;31.33;;
74369;SDS011;62805;44.644;10.942;2022-10-17T07:21:35;57.90;;;30.13;;
74369;SDS011;62805;44.644;10.942;2022-10-17T07:24:01;61.08;;;28.85;;
74369;SDS011;62805;44.644;10.942;2022-10-17T07:26:26;72.90;;;32.80;;
74369;SDS011;62805;44.644;10.942;2022-10-17T07:28:52;68.40;;;33.10;;
74369;SDS011;62805;44.644;10.942;2022-10-17T07:33:44;57.17;;;29.02;;
74369;SDS011;62805;44.644;10.942;2022-10-17T07:36:10;59.55;;;30.00;;
74369;SDS011;62805;44.644;10.942;2022-10-17T07:38:36;66.15;;;30.80;;
74369;SDS011;62805;44.644;10.942;2022-10-17T07:41:03;60.22;;;30.55;;
74369;SDS011;62805;44.644;10.942;2022-10-17T07:43:30;61.28;;;30.35;;
74369;SDS011;62805;44.644;10.942;2022-10-17T07:45:55;57.97;;;29.63;;
74369;SDS011;62805;44.644;10.942;2022-10-17T07:48:21;60.85;;;27.90;;
74369;SDS011;62805;44.644;10.942;2022-10-17T07:50:47;57.38;;;29.80;;
74369;SDS011;62805;44.644;10.942;2022-10-17T07:53:13;57.47;;;29.37;;
74369;SDS011;62805;44.644;10.942;2022-10-17T07:55:38;57.97;;;28.50;;
74369;SDS011;62805;44.644;10.942;2022-10-17T07:58:04;58.17;;;29.60;;
74369;SDS011;62805;44.644;10.942;2022-10-17T08:00:30;53.88;;;28.08;;
74369;SDS011;62805;44.644;10.942;2022-10-17T08:02:56;56.15;;;28.42;;
74369;SDS011;62805;44.644;10.942;2022-10-17T08:05:21;58.45;;;28.42;;
74369;SDS011;62805;44.644;10.942;2022-10-17T08:07:47;51.08;;;26.35;;
74369;SDS011;62805;44.644;10.942;2022-10-17T08:10:13;52.13;;;26.95;;
74369;SDS011;62805;44.644;10.942;2022-10-17T08:12:39;57.97;;;28.58;;
74369;SDS011;62805;44.644;10.942;2022-10-17T08:15:05;47.63;;;25.63;;
74369;SDS011;62805;44.644;10.942;2022-10-17T08:17:33;47.83;;;25.25;;
74369;SDS011;62805;44.644;10.942;2022-10-17T08:19:59;50.72;;;27.40;;
74369;SDS011;62805;44.644;10.942;2022-10-17T08:22:24;53.22;;;27.70;;
74369;SDS011;62805;44.644;10.942;2022-10-17T08:24:50;47.85;;;25.52;;
74369;SDS011;62805;44.644;10.942;2022-10-17T08:27:15;45.47;;;25.20;;
74369;SDS011;62805;44.644;10.942;2022-10-17T08:29:47;46.35;;;25.67;;
74369;SDS011;62805;44.644;10.942;2022-10-17T08:32:16;48.90;;;26.02;;
74369;SDS011;62805;44.644;10.942;2022-10-17T08:34:42;47.28;;;24.75;;
74369;SDS011;62805;44.644;10.942;2022-10-17T08:37:07;47.65;;;26.10;;
74369;SDS011;62805;44.644;10.942;2022-10-17T08:39:32;44.67;;;25.23;;
74369;SDS011;62805;44.644;10.942;2022-10-17T08:47:00;41.53;;;22.67;;
74369;SDS011;62805;44.644;10.942;2022-10-17T08:49:47;39.65;;;22.73;;
74369;SDS011;62805;44.644;10.942;2022-10-17T08:55:04;42.58;;;23.63;;
74369;SDS011;62805;44.644;10.942;2022-10-17T08:57:39;41.75;;;23.95;;
74369;SDS011;62805;44.644;10.942;2022-10-17T09:00:06;44.20;;;24.40;;
74369;SDS011;62805;44.644;10.942;2022-10-17T09:10:57;44.03;;;24.15;;
74369;SDS011;62805;44.644;10.942;2022-10-17T09:16:16;44.50;;;24.25;;
74369;SDS011;62805;44.644;10.942;2022-10-17T09:18:55;41.17;;;23.73;;
74369;SDS011;62805;44.644;10.942;2022-10-17T09:24:05;39.65;;;21.25;;
74369;SDS011;62805;44.644;10.942;2022-10-17T09:26:38;40.60;;;23.00;;
74369;SDS011;62805;44.644;10.942;2022-10-17T09:29:04;36.53;;;20.85;;
74369;SDS011;62805;44.644;10.942;2022-10-17T09:31:41;43.58;;;24.33;;
74369;SDS011;62805;44.644;10.942;2022-10-17T09:34:10;42.33;;;23.35;;
74369;SDS011;62805;44.644;10.942;2022-10-17T09:36:36;42.10;;;23.27;;
74369;SDS011;62805;44.644;10.942;2022-10-17T09:44:07;42.75;;;22.67;;
74369;SDS011;62805;44.644;10.942;2022-10-17T09:46:37;48.42;;;23.42;;
74369;SDS011;62805;44.644;10.942;2022-10-17T09:51:31;35.90;;;20.95;;
74369;SDS011;62805;44.644;10.942;2022-10-17T09:53:59;38.35;;;21.38;;
74369;SDS011;62805;44.644;10.942;2022-10-17T09:56:27;40.70;;;22.25;;
74369;SDS011;62805;44.644;10.942;2022-10-17T09:58:55;41.53;;;21.15;;
74369;SDS011;62805;44.644;10.942;2022-10-17T10:04:10;33.55;;;20.73;;
74369;SDS011;62805;44.644;10.942;2022-10-17T10:06:40;38.85;;;21.17;;
74369;SDS011;62805;44.644;10.942;2022-10-17T10:09:16;38.03;;;21.48;;
74369;SDS011;62805;44.644;10.942;2022-10-17T10:14:20;37.90;;;21.58;;
74369;SDS011;62805;44.644;10.942;2022-10-17T10:16:46;36.33;;;21.58;;
74369;SDS011;62805;44.644;10.942;2022-10-17T10:19:18;37.45;;;20.88;;
74369;SDS011;62805;44.644;10.942;2022-10-17T10:21:59;33.78;;;19.88;;
74369;SDS011;62805;44.644;10.942;2022-10-17T10:24:25;34.97;;;20.70;;
74369;SDS011;62805;44.644;10.942;2022-10-17T10:26:51;37.35;;;20.90;;
74369;SDS011;62805;44.644;10.942;2022-10-17T10:31:54;40.05;;;20.30;;
74369;SDS011;62805;44.644;10.942;2022-10-17T10:34:32;38.20;;;19.85;;
74369;SDS011;62805;44.644;10.942;2022-10-17T10:39:40;39.53;;;22.98;;
74369;SDS011;62805;44.644;10.942;2022-10-17T10:42:15;39.83;;;22.42;;
74369;SDS011;62805;44.644;10.942;2022-10-17T10:44:45;35.88;;;20.27;;
74369;SDS011;62805;44.644;10.942;2022-10-17T10:47:15;33.80;;;21.08;;
74369;SDS011;62805;44.644;10.942;2022-10-17T10:49:43;39.63;;;23.15;;
74369;SDS011;62805;44.644;10.942;2022-10-17T10:52:14;37.22;;;22.30;;
74369;SDS011;62805;44.644;10.942;2022-10-17T10:54:50;38.42;;;21.67;;
74369;SDS011;62805;44.644;10.942;2022-10-17T10:57:20;39.65;;;22.40;;
74369;SDS011;62805;44.644;10.942;2022-10-17T11:02:26;40.42;;;22.55;;
74369;SDS011;62805;44.644;10.942;2022-10-17T11:05:00;39.20;;;22.60;;
74369;SDS011;62805;44.644;10.942;2022-10-17T11:07:32;38.72;;;22.77;;
74369;SDS011;62805;44.644;10.942;2022-10-17T11:17:59;40.58;;;22.80;;
74369;SDS011;62805;44.644;10.942;2022-10-17T11:26:32;40.22;;;22.48;;
74369;SDS011;62805;44.644;10.942;2022-10-17T11:29:02;39.38;;;21.77;;
74369;SDS011;62805;44.644;10.942;2022-10-17T11:31:30;40.25;;;23.60;;
74369;SDS011;62805;44.644;10.942;2022-10-17T11:34:02;38.08;;;23.17;;
74369;SDS011;62805;44.644;10.942;2022-10-17T11:36:30;39.15;;;22.70;;
74369;SDS011;62805;44.644;10.942;2022-10-17T11:41:48;38.20;;;21.13;;
74369;SDS011;62805;44.644;10.942;2022-10-17T11:44:20;40.10;;;21.08;;
74369;SDS011;62805;44.644;10.942;2022-10-17T11:46:51;34.63;;;21.02;;
74369;SDS011;62805;44.644;10.942;2022-10-17T11:49:21;36.22;;;21.73;;
74369;SDS011;62805;44.644;10.942;2022-10-17T11:52:00;38.47;;;22.13;;
74369;SDS011;62805;44.644;10.942;2022-10-17T11:54:49;38.42;;;22.98;;
74369;SDS011;62805;44.644;10.942;2022-10-17T12:00:10;39.65;;;23.75;;
74369;SDS011;62805;44.644;10.942;2022-10-17T12:02:49;42.60;;;24.52;;
74369;SDS011;62805;44.644;10.942;2022-10-17T12:11:13;35.60;;;20.80;;
74369;SDS011;62805;44.644;10.942;2022-10-17T12:21:12;37.85;;;19.40;;
74369;SDS011;62805;44.644;10.942;2022-10-17T12:23:39;36.50;;;20.10;;
74369;SDS011;62805;44.644;10.942;2022-10-17T12:26:06;32.13;;;18.88;;
74369;SDS011;62805;44.644;10.942;2022-10-17T12:31:06;27.88;;;18.20;;
74369;SDS011;62805;44.644;10.942;2022-10-17T12:33:53;33.60;;;17.70;;
74369;SDS011;62805;44.644;10.942;2022-10-17T12:54:29;30.00;;;17.20;;
74369;SDS011;62805;44.644;10.942;2022-10-17T12:56:55;34.70;;;18.65;;
74369;SDS011;62805;44.644;10.942;2022-10-17T12:59:26;34.45;;;20.10;;
74369;SDS011;62805;44.644;10.942;2022-10-17T13:01:58;31.30;;;19.50;;
74369;SDS011;62805;44.644;10.942;2022-10-17T13:04:24;32.83;;;19.13;;
74369;SDS011;62805;44.644;10.942;2022-10-17T13:06:51;37.45;;;19.88;;
74369;SDS011;62805;44.644;10.942;2022-10-17T13:11:52;29.50;;;17.58;;
74369;SDS011;62805;44.644;10.942;2022-10-17T13:14:19;26.50;;;15.63;;
74369;SDS011;62805;44.644;10.942;2022-10-17T13:19:16;26.65;;;13.82;;
74369;SDS011;62805;44.644;10.942;2022-10-17T13:21:56;25.77;;;14.55;;
74369;SDS011;62805;44.644;10.942;2022-10-17T13:24:32;23.02;;;14.32;;
74369;SDS011;62805;44.644;10.942;2022-10-17T13:26:59;22.67;;;14.27;;
74369;SDS011;62805;44.644;10.942;2022-10-17T13:29:26;24.08;;;14.55;;
74369;SDS011;62805;44.644;10.942;2022-10-17T13:32:00;24.10;;;13.60;;
74369;SDS011;62805;44.644;10.942;2022-10-17T13:34:28;24.92;;;15.25;;
74369;SDS011;62805;44.644;10.942;2022-10-17T13:36:54;22.42;;;14.60;;
74369;SDS011;62805;44.644;10.942;2022-10-17T13:39:24;23.40;;;14.15;;
74369;SDS011;62805;44.644;10.942;2022-10-17T13:41:51;24.33;;;14.30;;
74369;SDS011;62805;44.644;10.942;2022-10-17T13:44:21;20.90;;;14.07;;
74369;SDS011;62805;44.644;10.942;2022-10-17T13:46:48;21.13;;;13.20;;
74369;SDS011;62805;44.644;10.942;2022-10-17T13:51:59;23.92;;;13.40;;
74369;SDS011;62805;44.644;10.942;2022-10-17T13:54:31;23.92;;;12.88;;
74369;SDS011;62805;44.644;10.942;2022-10-17T13:57:24;20.90;;;13.88;;
74369;SDS011;62805;44.644;10.942;2022-10-17T13:59:55;23.80;;;13.98;;
74369;SDS011;62805;44.644;10.942;2022-10-17T14:02:25;27.15;;;17.20;;
74369;SDS011;62805;44.644;10.942;2022-10-17T14:05:25;23.98;;;14.48;;
74369;SDS011;62805;44.644;10.942;2022-10-17T14:07:49;27.60;;;16.33;;
74369;SDS011;62805;44.644;10.942;2022-10-17T14:10:22;21.52;;;14.10;;
74369;SDS011;62805;44.644;10.942;2022-10-17T14:12:55;25.83;;;16.17;;
74369;SDS011;62805;44.644;10.942;2022-10-17T14:15:22;28.25;;;15.30;;
74369;SDS011;62805;44.644;10.942;2022-10-17T14:17:56;23.92;;;14.02;;
74369;SDS011;62805;44.644;10.942;2022-10-17T14:20:26;26.15;;;14.65;;
74369;SDS011;62805;44.644;10.942;2022-10-17T14:22:53;25.02;;;15.43;;
74369;SDS011;62805;44.644;10.942;2022-10-17T14:28:33;25.38;;;14.82;;
74369;SDS011;62805;44.644;10.942;2022-10-17T14:30:47;20.50;;;13.20;;
74369;SDS011;62805;44.644;10.942;2022-10-17T14:33:17;24.60;;;15.15;;
74369;SDS011;62805;44.644;10.942;2022-10-17T14:35:51;24.33;;;14.20;;
74369;SDS011;62805;44.644;10.942;2022-10-17T14:38:17;22.48;;;14.13;;
74369;SDS011;62805;44.644;10.942;2022-10-17T14:40:50;24.27;;;14.88;;
74369;SDS011;62805;44.644;10.942;2022-10-17T14:43:19;21.15;;;14.32;;
74369;SDS011;62805;44.644;10.942;2022-10-17T14:45:46;22.92;;;13.98;;
74369;SDS011;62805;44.644;10.942;2022-10-17T14:48:13;21.98;;;12.82;;
74369;SDS011;62805;44.644;10.942;2022-10-17T14:50:40;20.95;;;13.43;;
74369;SDS011;62805;44.644;10.942;2022-10-17T14:55:36;22.75;;;14.27;;
74369;SDS011;62805;44.644;10.942;2022-10-17T15:01:01;22.98;;;13.38;;
74369;SDS011;62805;44.644;10.942;2022-10-17T15:03:26;20.20;;;12.43;;
74369;SDS011;62805;44.644;10.942;2022-10-17T15:05:52;20.98;;;12.73;;
74369;SDS011;62805;44.644;10.942;2022-10-17T15:10:46;19.90;;;13.30;;
74369;SDS011;62805;44.644;10.942;2022-10-17T15:13:12;19.17;;;12.65;;
74369;SDS011;62805;44.644;10.942;2022-10-17T15:15:38;18.95;;;12.88;;
74369;SDS011;62805;44.644;10.942;2022-10-17T15:18:05;26.33;;;14.05;;
74369;SDS011;62805;44.644;10.942;2022-10-17T15:20:30;20.30;;;12.73;;
74369;SDS011;62805;44.644;10.942;2022-10-17T15:22:57;20.92;;;13.23;;
74369;SDS011;62805;44.644;10.942;2022-10-17T15:25:24;20.15;;;12.57;;
74369;SDS011;62805;44.644;10.942;2022-10-17T15:27:50;22.67;;;13.32;;
74369;SDS011;62805;44.644;10.942;2022-10-17T15:30:20;24.60;;;13.73;;
74369;SDS011;62805;44.644;10.942;2022-10-17T15:32:48;21.25;;;12.82;;
74369;SDS011;62805;44.644;10.942;2022-10-17T15:35:14;20.38;;;13.07;;
74369;SDS011;62805;44.644;10.942;2022-10-17T15:37:40;25.05;;;13.43;;
74369;SDS011;62805;44.644;10.942;2022-10-17T15:40:09;23.45;;;13.05;;
74369;SDS011;62805;44.644;10.942;2022-10-17T15:42:39;25.05;;;13.77;;
74369;SDS011;62805;44.644;10.942;2022-10-17T15:45:04;21.58;;;13.32;;
74369;SDS011;62805;44.644;10.942;2022-10-17T15:47:31;20.13;;;12.07;;
74369;SDS011;62805;44.644;10.942;2022-10-17T15:49:59;23.20;;;14.77;;
74369;SDS011;62805;44.644;10.942;2022-10-17T15:52:26;19.80;;;12.90;;
74369;SDS011;62805;44.644;10.942;2022-10-17T15:54:52;22.48;;;12.85;;
74369;SDS011;62805;44.644;10.942;2022-10-17T15:57:19;20.65;;;13.10;;
74369;SDS011;62805;44.644;10.942;2022-10-17T15:59:46;22.30;;;12.75;;
74369;SDS011;62805;44.644;10.942;2022-10-17T16:02:13;20.85;;;12.93;;
74369;SDS011;62805;44.644;10.942;2022-10-17T16:07:04;20.97;;;13.60;;
74369;SDS011;62805;44.644;10.942;2022-10-17T16:09:32;20.83;;;13.15;;
74369;SDS011;62805;44.644;10.942;2022-10-17T16:11:59;21.48;;;13.45;;
74369;SDS011;62805;44.644;10.942;2022-10-17T16:14:25;23.50;;;13.38;;
74369;SDS011;62805;44.644;10.942;2022-10-17T16:16:50;20.08;;;12.88;;
74369;SDS011;62805;44.644;10.942;2022-10-17T16:19:16;26.42;;;13.38;;
74369;SDS011;62805;44.644;10.942;2022-10-17T16:21:41;21.48;;;13.15;;
74369;SDS011;62805;44.644;10.942;2022-10-17T16:24:10;21.20;;;13.25;;
74369;SDS011;62805;44.644;10.942;2022-10-17T16:26:36;24.58;;;14.32;;
74369;SDS011;62805;44.644;10.942;2022-10-17T16:29:02;23.88;;;15.48;;
74369;SDS011;62805;44.644;10.942;2022-10-17T16:31:40;22.65;;;13.85;;
74369;SDS011;62805;44.644;10.942;2022-10-17T16:34:07;23.77;;;12.70;;
74369;SDS011;62805;44.644;10.942;2022-10-17T16:36:34;22.33;;;12.95;;
74369;SDS011;62805;44.644;10.942;2022-10-17T16:39:00;25.95;;;14.23;;
74369;SDS011;62805;44.644;10.942;2022-10-17T16:41:35;23.63;;;14.77;;
74369;SDS011;62805;44.644;10.942;2022-10-17T16:44:03;24.75;;;14.43;;
74369;SDS011;62805;44.644;10.942;2022-10-17T16:46:30;29.30;;;14.88;;
74369;SDS011;62805;44.644;10.942;2022-10-17T16:48:56;32.17;;;14.65;;
74369;SDS011;62805;44.644;10.942;2022-10-17T16:51:22;28.05;;;14.75;;
74369;SDS011;62805;44.644;10.942;2022-10-17T16:53:49;23.85;;;14.15;;